Capel Saint Mary, United Kingdom
Current Conditions -  °F | °C
As of 5:50 PM on Monday 24 Nov 2014 (Local Time) from EGUW Reporting Station
Clear Clear  
Wind Chill: 39°   Ceiling: Unl
Heat Index: 39°   Visibility: 6mi
Dew Point: 37°   Wind: 2mph
Humidity: 93%   Direction: 310°NW
Pressure: 30.33"   Gusts: NA
Location:  52°N, 1.04°E
Report Text: EGUW 241750Z 31002KT CAVOK 04/03 Q1027 BLU BECMG 6000 BR WHT
Loading
Personal Weather Stations






























Interactive Weather Map New forecast layout! Learn more

10-Day Weather Forecast

Advertisements
Track Severe Weather on mobile